sensor_id;sensor_type;location;lat;lon;timestamp;temperature;humidity
25112;DHT22;13092;51.996;4.458;2022-07-29T00:01:16;17.90;99.90
25112;DHT22;13092;51.996;4.458;2022-07-29T00:03:45;17.80;99.90
25112;DHT22;13092;51.996;4.458;2022-07-29T00:06:13;17.90;99.90
25112;DHT22;13092;51.996;4.458;2022-07-29T00:08:41;17.80;99.90
25112;DHT22;13092;51.996;4.458;2022-07-29T00:11:11;17.90;99.90
25112;DHT22;13092;51.996;4.458;2022-07-29T00:13:39;17.80;99.90
25112;DHT22;13092;51.996;4.458;2022-07-29T00:16:07;17.80;99.90
25112;DHT22;13092;51.996;4.458;2022-07-29T00:18:35;17.70;99.90
25112;DHT22;13092;51.996;4.458;2022-07-29T00:21:03;17.80;99.90
25112;DHT22;13092;51.996;4.458;2022-07-29T00:23:31;17.70;99.90
25112;DHT22;13092;51.996;4.458;2022-07-29T00:26:02;17.70;99.90
25112;DHT22;13092;51.996;4.458;2022-07-29T00:28:32;17.60;99.90
25112;DHT22;13092;51.996;4.458;2022-07-29T00:31:00;17.70;99.90
25112;DHT22;13092;51.996;4.458;2022-07-29T00:33:28;17.50;99.90
25112;DHT22;13092;51.996;4.458;2022-07-29T00:35:56;17.50;99.90
25112;DHT22;13092;51.996;4.458;2022-07-29T00:38:23;17.60;99.90
25112;DHT22;13092;51.996;4.458;2022-07-29T00:40:52;17.50;99.90
25112;DHT22;13092;51.996;4.458;2022-07-29T00:43:20;17.50;99.90
25112;DHT22;13092;51.996;4.458;2022-07-29T00:45:50;17.50;99.90
25112;DHT22;13092;51.996;4.458;2022-07-29T00:48:18;17.50;99.90
25112;DHT22;13092;51.996;4.458;2022-07-29T00:50:46;17.40;99.90
25112;DHT22;13092;51.996;4.458;2022-07-29T00:53:14;17.50;99.90
25112;DHT22;13092;51.996;4.458;2022-07-29T00:55:42;17.40;99.90
25112;DHT22;13092;51.996;4.458;2022-07-29T00:58:11;17.40;99.90
25112;DHT22;13092;51.996;4.458;2022-07-29T01:00:41;17.40;99.90
25112;DHT22;13092;51.996;4.458;2022-07-29T01:03:12;17.40;99.90
25112;DHT22;13092;51.996;4.458;2022-07-29T01:05:41;17.60;99.90
25112;DHT22;13092;51.996;4.458;2022-07-29T01:08:17;17.60;99.90
25112;DHT22;13092;51.996;4.458;2022-07-29T01:10:46;17.50;99.90
25112;DHT22;13092;51.996;4.458;2022-07-29T01:13:16;17.40;99.90
25112;DHT22;13092;51.996;4.458;2022-07-29T01:15:47;17.50;99.90
25112;DHT22;13092;51.996;4.458;2022-07-29T01:18:22;17.50;99.90
25112;DHT22;13092;51.996;4.458;2022-07-29T01:21:05;17.40;99.90
25112;DHT22;13092;51.996;4.458;2022-07-29T01:23:55;17.40;99.90
25112;DHT22;13092;51.996;4.458;2022-07-29T01:26:41;17.40;99.90
25112;DHT22;13092;51.996;4.458;2022-07-29T01:29:26;17.40;99.90
25112;DHT22;13092;51.996;4.458;2022-07-29T01:32:08;17.30;99.90
25112;DHT22;13092;51.996;4.458;2022-07-29T01:34:57;17.30;99.90
25112;DHT22;13092;51.996;4.458;2022-07-29T01:37:28;17.30;99.90
25112;DHT22;13092;51.996;4.458;2022-07-29T01:39:59;17.40;99.90
25112;DHT22;13092;51.996;4.458;2022-07-29T01:42:34;17.30;99.90
25112;DHT22;13092;51.996;4.458;2022-07-29T01:45:10;17.20;99.90
25112;DHT22;13092;51.996;4.458;2022-07-29T01:47:44;17.20;99.90
25112;DHT22;13092;51.996;4.458;2022-07-29T01:50:16;17.20;99.90
25112;DHT22;13092;51.996;4.458;2022-07-29T01:52:52;17.20;99.90
25112;DHT22;13092;51.996;4.458;2022-07-29T01:55:25;17.20;99.90
25112;DHT22;13092;51.996;4.458;2022-07-29T01:57:56;17.20;99.90
25112;DHT22;13092;51.996;4.458;2022-07-29T02:00:27;17.10;99.90
25112;DHT22;13092;51.996;4.458;2022-07-29T02:02:56;17.10;99.90
25112;DHT22;13092;51.996;4.458;2022-07-29T02:05:28;17.10;99.90
25112;DHT22;13092;51.996;4.458;2022-07-29T02:07:58;17.10;99.90
25112;DHT22;13092;51.996;4.458;2022-07-29T02:10:29;17.10;99.90
25112;DHT22;13092;51.996;4.458;2022-07-29T02:12:59;17.10;99.90
25112;DHT22;13092;51.996;4.458;2022-07-29T02:15:32;17.00;99.90
25112;DHT22;13092;51.996;4.458;2022-07-29T02:18:04;17.00;99.90
25112;DHT22;13092;51.996;4.458;2022-07-29T02:20:34;17.00;99.90
25112;DHT22;13092;51.996;4.458;2022-07-29T02:23:03;17.00;99.90
25112;DHT22;13092;51.996;4.458;2022-07-29T02:25:31;16.90;99.90
25112;DHT22;13092;51.996;4.458;2022-07-29T02:28:04;16.90;99.90
25112;DHT22;13092;51.996;4.458;2022-07-29T02:30:38;17.00;99.90
25112;DHT22;13092;51.996;4.458;2022-07-29T02:33:09;16.90;99.90
25112;DHT22;13092;51.996;4.458;2022-07-29T02:35:40;16.90;99.90
25112;DHT22;13092;51.996;4.458;2022-07-29T02:38:13;16.90;99.90
25112;DHT22;13092;51.996;4.458;2022-07-29T02:41:02;16.90;99.90
25112;DHT22;13092;51.996;4.458;2022-07-29T02:43:31;16.90;99.90
25112;DHT22;13092;51.996;4.458;2022-07-29T02:46:05;16.90;99.90
25112;DHT22;13092;51.996;4.458;2022-07-29T02:48:58;16.80;99.90
25112;DHT22;13092;51.996;4.458;2022-07-29T02:51:32;16.80;99.90
25112;DHT22;13092;51.996;4.458;2022-07-29T02:54:14;16.60;99.90
25112;DHT22;13092;51.996;4.458;2022-07-29T02:56:44;16.70;99.90
25112;DHT22;13092;51.996;4.458;2022-07-29T02:59:14;16.80;99.90
25112;DHT22;13092;51.996;4.458;2022-07-29T03:01:47;16.70;99.90
25112;DHT22;13092;51.996;4.458;2022-07-29T03:04:17;16.70;99.90
25112;DHT22;13092;51.996;4.458;2022-07-29T03:06:48;16.70;99.90
25112;DHT22;13092;51.996;4.458;2022-07-29T03:09:17;16.80;99.90
25112;DHT22;13092;51.996;4.458;2022-07-29T03:11:46;16.70;99.90
25112;DHT22;13092;51.996;4.458;2022-07-29T03:14:17;16.70;99.90
25112;DHT22;13092;51.996;4.458;2022-07-29T03:16:48;16.70;99.90
25112;DHT22;13092;51.996;4.458;2022-07-29T03:19:17;16.70;99.90
25112;DHT22;13092;51.996;4.458;2022-07-29T03:21:45;16.70;99.90
25112;DHT22;13092;51.996;4.458;2022-07-29T03:24:33;16.60;99.90
25112;DHT22;13092;51.996;4.458;2022-07-29T03:27:02;16.60;99.90
25112;DHT22;13092;51.996;4.458;2022-07-29T03:29:31;16.60;99.90
25112;DHT22;13092;51.996;4.458;2022-07-29T03:32:03;16.50;99.90
25112;DHT22;13092;51.996;4.458;2022-07-29T03:34:35;16.50;99.90
25112;DHT22;13092;51.996;4.458;2022-07-29T03:37:04;16.50;99.90
25112;DHT22;13092;51.996;4.458;2022-07-29T03:39:36;16.50;99.90
25112;DHT22;13092;51.996;4.458;2022-07-29T03:42:07;16.50;99.90
25112;DHT22;13092;51.996;4.458;2022-07-29T03:44:37;16.50;99.90
25112;DHT22;13092;51.996;4.458;2022-07-29T03:47:08;16.50;99.90
25112;DHT22;13092;51.996;4.458;2022-07-29T03:49:38;16.50;99.90
25112;DHT22;13092;51.996;4.458;2022-07-29T03:52:07;16.40;99.90
25112;DHT22;13092;51.996;4.458;2022-07-29T03:54:35;16.50;99.90
25112;DHT22;13092;51.996;4.458;2022-07-29T03:57:05;16.50;99.90
25112;DHT22;13092;51.996;4.458;2022-07-29T03:59:34;16.40;99.90
25112;DHT22;13092;51.996;4.458;2022-07-29T04:02:04;16.50;99.90
25112;DHT22;13092;51.996;4.458;2022-07-29T04:04:34;16.60;99.90
25112;DHT22;13092;51.996;4.458;2022-07-29T04:07:03;16.50;99.90
25112;DHT22;13092;51.996;4.458;2022-07-29T04:09:31;16.40;99.90
25112;DHT22;13092;51.996;4.458;2022-07-29T04:11:59;16.40;99.90
25112;DHT22;13092;51.996;4.458;2022-07-29T04:14:30;16.30;99.90
25112;DHT22;13092;51.996;4.458;2022-07-29T04:16:59;16.50;99.90
25112;DHT22;13092;51.996;4.458;2022-07-29T04:19:27;16.40;99.90
25112;DHT22;13092;51.996;4.458;2022-07-29T04:21:57;16.30;99.90
25112;DHT22;13092;51.996;4.458;2022-07-29T04:24:25;16.40;99.90
25112;DHT22;13092;51.996;4.458;2022-07-29T04:26:54;16.40;99.90
25112;DHT22;13092;51.996;4.458;2022-07-29T04:29:22;16.40;99.90
25112;DHT22;13092;51.996;4.458;2022-07-29T04:31:50;16.40;99.90
25112;DHT22;13092;51.996;4.458;2022-07-29T04:34:18;16.40;99.90
25112;DHT22;13092;51.996;4.458;2022-07-29T04:36:46;16.40;99.90
25112;DHT22;13092;51.996;4.458;2022-07-29T04:39:16;16.50;99.90
25112;DHT22;13092;51.996;4.458;2022-07-29T04:41:49;16.40;99.90
25112;DHT22;13092;51.996;4.458;2022-07-29T04:44:21;16.40;99.90
25112;DHT22;13092;51.996;4.458;2022-07-29T04:46:55;16.50;99.90
25112;DHT22;13092;51.996;4.458;2022-07-29T04:49:24;16.40;99.90
25112;DHT22;13092;51.996;4.458;2022-07-29T04:51:52;16.50;99.90
25112;DHT22;13092;51.996;4.458;2022-07-29T04:54:21;16.40;99.90
25112;DHT22;13092;51.996;4.458;2022-07-29T04:56:50;16.50;99.90
25112;DHT22;13092;51.996;4.458;2022-07-29T04:59:18;16.50;99.90
25112;DHT22;13092;51.996;4.458;2022-07-29T05:01:46;16.50;99.90
25112;DHT22;13092;51.996;4.458;2022-07-29T05:04:14;16.50;99.90
25112;DHT22;13092;51.996;4.458;2022-07-29T05:06:43;16.50;99.90
25112;DHT22;13092;51.996;4.458;2022-07-29T05:09:11;16.50;99.90
25112;DHT22;13092;51.996;4.458;2022-07-29T05:11:40;16.60;99.90
25112;DHT22;13092;51.996;4.458;2022-07-29T05:14:08;16.60;99.90
25112;DHT22;13092;51.996;4.458;2022-07-29T05:16:36;16.70;99.90
25112;DHT22;13092;51.996;4.458;2022-07-29T05:19:05;16.70;99.90
25112;DHT22;13092;51.996;4.458;2022-07-29T05:21:40;16.80;99.90
25112;DHT22;13092;51.996;4.458;2022-07-29T05:24:08;16.90;99.90
25112;DHT22;13092;51.996;4.458;2022-07-29T05:26:36;17.00;99.90
25112;DHT22;13092;51.996;4.458;2022-07-29T05:29:05;17.20;99.90
25112;DHT22;13092;51.996;4.458;2022-07-29T05:31:53;17.30;99.90
25112;DHT22;13092;51.996;4.458;2022-07-29T05:34:22;17.40;99.90
25112;DHT22;13092;51.996;4.458;2022-07-29T05:36:51;17.60;99.90
25112;DHT22;13092;51.996;4.458;2022-07-29T05:39:20;17.70;99.90
25112;DHT22;13092;51.996;4.458;2022-07-29T05:42:08;17.80;99.90
25112;DHT22;13092;51.996;4.458;2022-07-29T05:44:38;17.70;99.90
25112;DHT22;13092;51.996;4.458;2022-07-29T05:47:06;17.90;99.90
25112;DHT22;13092;51.996;4.458;2022-07-29T05:49:35;18.00;99.90
25112;DHT22;13092;51.996;4.458;2022-07-29T05:52:03;18.10;99.90
25112;DHT22;13092;51.996;4.458;2022-07-29T05:54:31;18.10;99.90
25112;DHT22;13092;51.996;4.458;2022-07-29T05:56:59;18.20;99.90
25112;DHT22;13092;51.996;4.458;2022-07-29T05:59:28;18.20;99.90
25112;DHT22;13092;51.996;4.458;2022-07-29T06:01:57;18.40;99.90
25112;DHT22;13092;51.996;4.458;2022-07-29T06:04:25;18.40;99.90
25112;DHT22;13092;51.996;4.458;2022-07-29T06:06:54;18.40;99.90
25112;DHT22;13092;51.996;4.458;2022-07-29T06:09:22;18.30;99.90
25112;DHT22;13092;51.996;4.458;2022-07-29T06:11:50;18.30;99.90
25112;DHT22;13092;51.996;4.458;2022-07-29T06:14:18;18.40;99.90
25112;DHT22;13092;51.996;4.458;2022-07-29T06:16:47;18.50;99.90
25112;DHT22;13092;51.996;4.458;2022-07-29T06:19:16;18.60;99.90
25112;DHT22;13092;51.996;4.458;2022-07-29T06:21:45;18.60;99.90
25112;DHT22;13092;51.996;4.458;2022-07-29T06:24:14;18.50;99.90
25112;DHT22;13092;51.996;4.458;2022-07-29T06:26:43;18.50;99.90
25112;DHT22;13092;51.996;4.458;2022-07-29T06:29:12;18.50;99.90
25112;DHT22;13092;51.996;4.458;2022-07-29T06:31:40;18.50;99.90
25112;DHT22;13092;51.996;4.458;2022-07-29T06:34:08;18.50;99.90
25112;DHT22;13092;51.996;4.458;2022-07-29T06:36:38;18.60;99.90
25112;DHT22;13092;51.996;4.458;2022-07-29T06:39:07;18.60;99.90
25112;DHT22;13092;51.996;4.458;2022-07-29T06:41:37;18.70;99.90
25112;DHT22;13092;51.996;4.458;2022-07-29T06:44:06;19.00;99.90
25112;DHT22;13092;51.996;4.458;2022-07-29T06:46:34;18.90;99.90
25112;DHT22;13092;51.996;4.458;2022-07-29T06:49:03;19.00;99.90
25112;DHT22;13092;51.996;4.458;2022-07-29T06:51:31;19.10;99.90
25112;DHT22;13092;51.996;4.458;2022-07-29T06:54:01;19.10;99.90
25112;DHT22;13092;51.996;4.458;2022-07-29T06:56:32;19.20;99.90
25112;DHT22;13092;51.996;4.458;2022-07-29T06:59:06;19.30;99.90
25112;DHT22;13092;51.996;4.458;2022-07-29T07:01:35;19.20;99.90
25112;DHT22;13092;51.996;4.458;2022-07-29T07:04:03;19.10;99.90
25112;DHT22;13092;51.996;4.458;2022-07-29T07:06:32;19.20;99.90
25112;DHT22;13092;51.996;4.458;2022-07-29T07:09:01;19.20;99.90
25112;DHT22;13092;51.996;4.458;2022-07-29T07:11:31;19.30;99.90
25112;DHT22;13092;51.996;4.458;2022-07-29T07:13:59;19.20;99.90
25112;DHT22;13092;51.996;4.458;2022-07-29T07:16:29;19.20;99.90
25112;DHT22;13092;51.996;4.458;2022-07-29T07:18:58;19.10;99.90
25112;DHT22;13092;51.996;4.458;2022-07-29T07:21:26;19.20;99.90
25112;DHT22;13092;51.996;4.458;2022-07-29T07:23:56;19.20;99.90
25112;DHT22;13092;51.996;4.458;2022-07-29T07:26:26;19.30;99.90
25112;DHT22;13092;51.996;4.458;2022-07-29T07:28:54;19.10;99.90
25112;DHT22;13092;51.996;4.458;2022-07-29T07:31:22;19.10;99.90
25112;DHT22;13092;51.996;4.458;2022-07-29T07:33:50;19.10;99.90
25112;DHT22;13092;51.996;4.458;2022-07-29T07:36:20;19.20;99.90
25112;DHT22;13092;51.996;4.458;2022-07-29T07:38:48;19.20;99.90
25112;DHT22;13092;51.996;4.458;2022-07-29T07:41:17;19.30;99.90
25112;DHT22;13092;51.996;4.458;2022-07-29T07:43:46;19.50;99.90
25112;DHT22;13092;51.996;4.458;2022-07-29T07:46:15;19.70;99.90
25112;DHT22;13092;51.996;4.458;2022-07-29T07:48:43;19.80;99.90
25112;DHT22;13092;51.996;4.458;2022-07-29T07:51:11;19.80;99.90
25112;DHT22;13092;51.996;4.458;2022-07-29T07:53:39;19.90;99.90
25112;DHT22;13092;51.996;4.458;2022-07-29T07:56:07;19.90;99.90
25112;DHT22;13092;51.996;4.458;2022-07-29T07:58:38;20.00;99.90
25112;DHT22;13092;51.996;4.458;2022-07-29T08:01:08;20.00;99.90
25112;DHT22;13092;51.996;4.458;2022-07-29T08:03:37;20.10;99.90
25112;DHT22;13092;51.996;4.458;2022-07-29T08:06:06;20.10;99.90
25112;DHT22;13092;51.996;4.458;2022-07-29T08:08:34;20.10;99.90
25112;DHT22;13092;51.996;4.458;2022-07-29T08:11:02;20.20;99.90
25112;DHT22;13092;51.996;4.458;2022-07-29T08:13:36;20.40;99.90
25112;DHT22;13092;51.996;4.458;2022-07-29T08:16:05;20.40;99.90
25112;DHT22;13092;51.996;4.458;2022-07-29T08:18:42;20.50;99.90
25112;DHT22;13092;51.996;4.458;2022-07-29T08:21:10;20.60;99.90
25112;DHT22;13092;51.996;4.458;2022-07-29T08:23:41;20.70;99.90
25112;DHT22;13092;51.996;4.458;2022-07-29T08:26:24;20.70;99.90
25112;DHT22;13092;51.996;4.458;2022-07-29T08:28:52;20.80;99.90
25112;DHT22;13092;51.996;4.458;2022-07-29T08:31:20;20.80;99.90
25112;DHT22;13092;51.996;4.458;2022-07-29T08:33:50;20.80;99.90
25112;DHT22;13092;51.996;4.458;2022-07-29T08:36:18;21.00;99.90
25112;DHT22;13092;51.996;4.458;2022-07-29T08:38:48;21.10;99.90
25112;DHT22;13092;51.996;4.458;2022-07-29T08:41:16;21.40;99.90
25112;DHT22;13092;51.996;4.458;2022-07-29T08:43:46;21.50;99.90
25112;DHT22;13092;51.996;4.458;2022-07-29T08:46:14;21.60;99.90
25112;DHT22;13092;51.996;4.458;2022-07-29T08:48:44;21.60;99.90
25112;DHT22;13092;51.996;4.458;2022-07-29T08:51:15;21.60;99.90
25112;DHT22;13092;51.996;4.458;2022-07-29T08:53:45;21.70;99.90
25112;DHT22;13092;51.996;4.458;2022-07-29T08:56:15;21.70;99.90
25112;DHT22;13092;51.996;4.458;2022-07-29T08:58:45;21.80;99.90
25112;DHT22;13092;51.996;4.458;2022-07-29T09:01:22;22.00;99.90
25112;DHT22;13092;51.996;4.458;2022-07-29T09:04:04;22.10;99.90
25112;DHT22;13092;51.996;4.458;2022-07-29T09:06:37;22.30;99.90
25112;DHT22;13092;51.996;4.458;2022-07-29T09:09:07;22.30;99.90
25112;DHT22;13092;51.996;4.458;2022-07-29T09:11:37;22.30;99.90
25112;DHT22;13092;51.996;4.458;2022-07-29T09:14:05;22.20;99.90
25112;DHT22;13092;51.996;4.458;2022-07-29T09:16:47;22.20;99.90
25112;DHT22;13092;51.996;4.458;2022-07-29T09:19:28;22.30;99.90
25112;DHT22;13092;51.996;4.458;2022-07-29T09:21:59;22.30;99.90
25112;DHT22;13092;51.996;4.458;2022-07-29T09:24:40;22.50;99.90
25112;DHT22;13092;51.996;4.458;2022-07-29T09:27:10;22.50;99.90
25112;DHT22;13092;51.996;4.458;2022-07-29T09:29:39;22.70;99.90
25112;DHT22;13092;51.996;4.458;2022-07-29T09:32:09;22.60;99.90
25112;DHT22;13092;51.996;4.458;2022-07-29T09:34:38;22.70;99.90
25112;DHT22;13092;51.996;4.458;2022-07-29T09:37:07;22.90;99.90
25112;DHT22;13092;51.996;4.458;2022-07-29T09:39:37;23.00;99.90
25112;DHT22;13092;51.996;4.458;2022-07-29T09:42:12;23.00;99.90
25112;DHT22;13092;51.996;4.458;2022-07-29T09:44:44;23.30;99.90
25112;DHT22;13092;51.996;4.458;2022-07-29T09:47:12;23.50;99.90
25112;DHT22;13092;51.996;4.458;2022-07-29T09:49:55;23.60;99.90
25112;DHT22;13092;51.996;4.458;2022-07-29T09:52:27;23.70;99.90
25112;DHT22;13092;51.996;4.458;2022-07-29T09:55:04;23.80;99.90
25112;DHT22;13092;51.996;4.458;2022-07-29T09:57:32;24.10;99.90
25112;DHT22;13092;51.996;4.458;2022-07-29T10:00:05;24.30;99.90
25112;DHT22;13092;51.996;4.458;2022-07-29T10:02:36;24.30;99.90
25112;DHT22;13092;51.996;4.458;2022-07-29T10:05:06;24.30;99.90
25112;DHT22;13092;51.996;4.458;2022-07-29T10:07:46;24.40;99.90
25112;DHT22;13092;51.996;4.458;2022-07-29T10:10:22;24.50;99.90
25112;DHT22;13092;51.996;4.458;2022-07-29T10:12:53;24.70;99.90
25112;DHT22;13092;51.996;4.458;2022-07-29T10:15:23;24.80;99.90
25112;DHT22;13092;51.996;4.458;2022-07-29T10:17:51;24.90;99.90
25112;DHT22;13092;51.996;4.458;2022-07-29T10:20:20;25.00;99.90
25112;DHT22;13092;51.996;4.458;2022-07-29T10:22:51;25.30;99.90
25112;DHT22;13092;51.996;4.458;2022-07-29T10:25:20;25.50;99.90
25112;DHT22;13092;51.996;4.458;2022-07-29T10:27:49;25.30;99.90
25112;DHT22;13092;51.996;4.458;2022-07-29T10:30:20;25.30;99.90
25112;DHT22;13092;51.996;4.458;2022-07-29T10:32:55;25.40;99.90
25112;DHT22;13092;51.996;4.458;2022-07-29T10:35:44;25.60;99.90
25112;DHT22;13092;51.996;4.458;2022-07-29T10:38:41;25.80;99.90
25112;DHT22;13092;51.996;4.458;2022-07-29T10:41:39;26.10;99.90
25112;DHT22;13092;51.996;4.458;2022-07-29T10:44:15;26.20;99.90
25112;DHT22;13092;51.996;4.458;2022-07-29T10:46:49;26.60;99.90
25112;DHT22;13092;51.996;4.458;2022-07-29T10:49:19;26.70;99.90
25112;DHT22;13092;51.996;4.458;2022-07-29T10:51:56;26.80;99.90
25112;DHT22;13092;51.996;4.458;2022-07-29T10:54:43;26.90;99.90
25112;DHT22;13092;51.996;4.458;2022-07-29T10:57:24;26.60;99.90
25112;DHT22;13092;51.996;4.458;2022-07-29T11:00:26;27.10;99.90
25112;DHT22;13092;51.996;4.458;2022-07-29T11:02:55;27.20;99.90
25112;DHT22;13092;51.996;4.458;2022-07-29T11:05:25;27.00;99.90
25112;DHT22;13092;51.996;4.458;2022-07-29T11:08:20;26.90;99.90
25112;DHT22;13092;51.996;4.458;2022-07-29T11:11:30;26.90;99.90
25112;DHT22;13092;51.996;4.458;2022-07-29T11:14:02;27.00;99.90
25112;DHT22;13092;51.996;4.458;2022-07-29T11:17:01;27.30;99.90
25112;DHT22;13092;51.996;4.458;2022-07-29T11:19:33;27.10;99.90
25112;DHT22;13092;51.996;4.458;2022-07-29T11:22:08;27.20;99.90
25112;DHT22;13092;51.996;4.458;2022-07-29T11:24:42;27.40;99.90
25112;DHT22;13092;51.996;4.458;2022-07-29T11:27:17;27.80;99.90
25112;DHT22;13092;51.996;4.458;2022-07-29T11:29:53;27.90;99.90
25112;DHT22;13092;51.996;4.458;2022-07-29T11:32:23;27.90;99.90
25112;DHT22;13092;51.996;4.458;2022-07-29T11:35:13;27.90;99.90
25112;DHT22;13092;51.996;4.458;2022-07-29T11:37:44;27.80;99.90
25112;DHT22;13092;51.996;4.458;2022-07-29T11:40:21;27.80;99.90
25112;DHT22;13092;51.996;4.458;2022-07-29T11:42:49;27.50;99.90
25112;DHT22;13092;51.996;4.458;2022-07-29T11:45:21;27.40;99.90
25112;DHT22;13092;51.996;4.458;2022-07-29T11:48:15;27.40;99.90
25112;DHT22;13092;51.996;4.458;2022-07-29T11:50:57;27.60;99.90
25112;DHT22;13092;51.996;4.458;2022-07-29T11:53:25;27.80;99.90
25112;DHT22;13092;51.996;4.458;2022-07-29T11:55:59;28.10;99.90
25112;DHT22;13092;51.996;4.458;2022-07-29T11:58:28;27.90;99.90
25112;DHT22;13092;51.996;4.458;2022-07-29T12:00:59;27.90;99.90
25112;DHT22;13092;51.996;4.458;2022-07-29T12:03:31;27.80;99.90
25112;DHT22;13092;51.996;4.458;2022-07-29T12:06:03;27.80;99.90
25112;DHT22;13092;51.996;4.458;2022-07-29T12:08:40;27.70;99.90
25112;DHT22;13092;51.996;4.458;2022-07-29T12:11:15;27.80;99.90
25112;DHT22;13092;51.996;4.458;2022-07-29T12:13:47;27.90;99.90
25112;DHT22;13092;51.996;4.458;2022-07-29T12:16:17;27.70;99.90
25112;DHT22;13092;51.996;4.458;2022-07-29T12:18:57;27.60;99.90
25112;DHT22;13092;51.996;4.458;2022-07-29T12:21:25;27.80;99.90
25112;DHT22;13092;51.996;4.458;2022-07-29T12:23:55;27.80;99.90
25112;DHT22;13092;51.996;4.458;2022-07-29T12:26:34;27.70;99.90
25112;DHT22;13092;51.996;4.458;2022-07-29T12:29:03;27.90;99.90
25112;DHT22;13092;51.996;4.458;2022-07-29T12:31:42;28.20;99.90
25112;DHT22;13092;51.996;4.458;2022-07-29T12:34:12;28.10;99.90
25112;DHT22;13092;51.996;4.458;2022-07-29T12:36:41;28.10;99.90
25112;DHT22;13092;51.996;4.458;2022-07-29T12:39:10;27.80;99.90
25112;DHT22;13092;51.996;4.458;2022-07-29T12:41:39;27.80;99.90
25112;DHT22;13092;51.996;4.458;2022-07-29T12:44:07;27.80;99.90
25112;DHT22;13092;51.996;4.458;2022-07-29T12:46:35;27.70;99.90
25112;DHT22;13092;51.996;4.458;2022-07-29T12:49:06;27.60;99.90
25112;DHT22;13092;51.996;4.458;2022-07-29T12:51:37;27.70;99.90
25112;DHT22;13092;51.996;4.458;2022-07-29T12:54:08;27.40;99.90
25112;DHT22;13092;51.996;4.458;2022-07-29T12:56:38;27.30;99.90
25112;DHT22;13092;51.996;4.458;2022-07-29T12:59:14;27.50;99.90
25112;DHT22;13092;51.996;4.458;2022-07-29T13:01:46;27.50;99.90
25112;DHT22;13092;51.996;4.458;2022-07-29T13:04:27;27.70;99.90
25112;DHT22;13092;51.996;4.458;2022-07-29T13:06:59;27.80;99.90
25112;DHT22;13092;51.996;4.458;2022-07-29T13:09:37;27.70;99.90
25112;DHT22;13092;51.996;4.458;2022-07-29T13:12:07;27.70;99.90
25112;DHT22;13092;51.996;4.458;2022-07-29T13:14:38;27.80;99.90
25112;DHT22;13092;51.996;4.458;2022-07-29T13:17:07;28.00;99.90
25112;DHT22;13092;51.996;4.458;2022-07-29T13:19:39;28.00;99.90
25112;DHT22;13092;51.996;4.458;2022-07-29T13:22:09;28.40;99.90
25112;DHT22;13092;51.996;4.458;2022-07-29T13:24:48;28.50;99.90
25112;DHT22;13092;51.996;4.458;2022-07-29T13:27:17;28.40;99.90
25112;DHT22;13092;51.996;4.458;2022-07-29T13:29:45;28.20;99.90
25112;DHT22;13092;51.996;4.458;2022-07-29T13:32:14;28.00;99.90
25112;DHT22;13092;51.996;4.458;2022-07-29T13:34:43;27.90;99.90
25112;DHT22;13092;51.996;4.458;2022-07-29T13:37:12;27.50;99.90
25112;DHT22;13092;51.996;4.458;2022-07-29T13:39:40;27.30;99.90
25112;DHT22;13092;51.996;4.458;2022-07-29T13:42:18;27.20;99.90
25112;DHT22;13092;51.996;4.458;2022-07-29T13:44:46;27.10;99.90
25112;DHT22;13092;51.996;4.458;2022-07-29T13:47:15;27.00;99.90
25112;DHT22;13092;51.996;4.458;2022-07-29T13:49:45;26.90;99.90
25112;DHT22;13092;51.996;4.458;2022-07-29T13:52:13;26.80;99.90
25112;DHT22;13092;51.996;4.458;2022-07-29T13:54:42;26.80;99.90
25112;DHT22;13092;51.996;4.458;2022-07-29T13:57:11;26.70;99.90
25112;DHT22;13092;51.996;4.458;2022-07-29T13:59:39;26.60;99.90
25112;DHT22;13092;51.996;4.458;2022-07-29T14:02:08;26.50;99.90
25112;DHT22;13092;51.996;4.458;2022-07-29T14:04:36;26.60;99.90
25112;DHT22;13092;51.996;4.458;2022-07-29T14:07:07;26.60;99.90
25112;DHT22;13092;51.996;4.458;2022-07-29T14:09:35;26.70;99.90
25112;DHT22;13092;51.996;4.458;2022-07-29T14:12:08;26.70;99.90
25112;DHT22;13092;51.996;4.458;2022-07-29T14:14:36;26.60;99.90
25112;DHT22;13092;51.996;4.458;2022-07-29T14:17:04;26.60;99.90
25112;DHT22;13092;51.996;4.458;2022-07-29T14:19:34;26.40;99.90
25112;DHT22;13092;51.996;4.458;2022-07-29T14:22:07;26.30;99.90
25112;DHT22;13092;51.996;4.458;2022-07-29T14:24:37;26.40;99.90
25112;DHT22;13092;51.996;4.458;2022-07-29T14:27:06;26.30;99.90
25112;DHT22;13092;51.996;4.458;2022-07-29T14:29:35;26.30;99.90
25112;DHT22;13092;51.996;4.458;2022-07-29T14:32:05;26.40;99.90
25112;DHT22;13092;51.996;4.458;2022-07-29T14:34:33;26.40;99.90
25112;DHT22;13092;51.996;4.458;2022-07-29T14:37:02;26.30;99.90
25112;DHT22;13092;51.996;4.458;2022-07-29T14:39:34;26.30;99.90
25112;DHT22;13092;51.996;4.458;2022-07-29T14:42:09;26.30;99.90
25112;DHT22;13092;51.996;4.458;2022-07-29T14:44:38;26.00;99.90
25112;DHT22;13092;51.996;4.458;2022-07-29T14:47:08;26.00;99.90
25112;DHT22;13092;51.996;4.458;2022-07-29T14:49:37;26.00;99.90
25112;DHT22;13092;51.996;4.458;2022-07-29T14:52:05;26.10;99.90
25112;DHT22;13092;51.996;4.458;2022-07-29T14:54:34;26.20;99.90
25112;DHT22;13092;51.996;4.458;2022-07-29T14:57:02;26.10;99.90
25112;DHT22;13092;51.996;4.458;2022-07-29T14:59:30;26.10;99.90
25112;DHT22;13092;51.996;4.458;2022-07-29T15:01:58;26.00;99.90
25112;DHT22;13092;51.996;4.458;2022-07-29T15:04:29;26.00;99.90
25112;DHT22;13092;51.996;4.458;2022-07-29T15:07:02;26.00;99.90
25112;DHT22;13092;51.996;4.458;2022-07-29T15:09:30;26.00;99.90
25112;DHT22;13092;51.996;4.458;2022-07-29T15:12:03;26.10;99.90
25112;DHT22;13092;51.996;4.458;2022-07-29T15:14:31;26.00;99.90
25112;DHT22;13092;51.996;4.458;2022-07-29T15:16:59;26.00;99.90
25112;DHT22;13092;51.996;4.458;2022-07-29T15:19:30;26.00;99.90
25112;DHT22;13092;51.996;4.458;2022-07-29T15:21:58;25.90;99.90
25112;DHT22;13092;51.996;4.458;2022-07-29T15:24:27;26.00;99.90
25112;DHT22;13092;51.996;4.458;2022-07-29T15:26:55;26.10;99.90
25112;DHT22;13092;51.996;4.458;2022-07-29T15:29:28;26.20;99.90
25112;DHT22;13092;51.996;4.458;2022-07-29T15:31:56;26.30;99.90
25112;DHT22;13092;51.996;4.458;2022-07-29T15:34:24;26.30;99.90
25112;DHT22;13092;51.996;4.458;2022-07-29T15:36:53;26.20;99.90
25112;DHT22;13092;51.996;4.458;2022-07-29T15:39:21;26.20;99.90
25112;DHT22;13092;51.996;4.458;2022-07-29T15:41:49;26.20;99.90
25112;DHT22;13092;51.996;4.458;2022-07-29T15:44:18;26.40;99.90
25112;DHT22;13092;51.996;4.458;2022-07-29T15:46:48;26.30;99.90
25112;DHT22;13092;51.996;4.458;2022-07-29T15:49:33;26.30;99.90
25112;DHT22;13092;51.996;4.458;2022-07-29T15:52:15;26.20;99.90
25112;DHT22;13092;51.996;4.458;2022-07-29T15:54:50;26.20;99.90
25112;DHT22;13092;51.996;4.458;2022-07-29T15:57:18;26.00;99.90